createdAt,value
2017-01-28T00:00:05.471Z,-3.66
2017-01-28T00:01:05.383Z,-3.67
2017-01-28T00:02:05.825Z,-3.77
2017-01-28T00:03:06.304Z,-3.78
2017-01-28T00:04:05.183Z,-3.8
2017-01-28T00:05:05.331Z,-3.85
2017-01-28T00:06:05.947Z,-3.92
2017-01-28T00:07:05.302Z,-3.95
2017-01-28T00:08:05.857Z,-3.99
2017-01-28T00:09:06.018Z,-4.02
2017-01-28T00:10:05.771Z,-4.12
2017-01-28T00:11:06.151Z,-4.07
2017-01-28T00:12:05.140Z,-4.27
2017-01-28T00:13:05.389Z,-4.17
2017-01-28T00:14:05.217Z,-4.27
2017-01-28T00:15:06.221Z,-4.45
2017-01-28T00:16:04.662Z,-4.42
2017-01-28T00:17:05.585Z,-4.53
2017-01-28T00:18:05.867Z,-4.49
2017-01-28T00:19:05.527Z,-4.6
2017-01-28T00:20:05.553Z,-4.59
2017-01-28T00:21:06.287Z,-4.55
2017-01-28T00:22:04.602Z,-4.63
2017-01-28T00:23:04.926Z,-4.55
2017-01-28T00:24:05.377Z,-4.7
2017-01-28T00:25:05.982Z,-4.71
2017-01-28T00:26:06.239Z,-4.75
2017-01-28T00:27:05.996Z,-4.79
2017-01-28T00:28:06.098Z,-4.92
2017-01-28T00:29:05.912Z,-4.91
2017-01-28T00:30:07.016Z,-5
2017-01-28T00:31:06.152Z,-4.88
2017-01-28T00:32:05.841Z,-4.92
2017-01-28T00:33:05.945Z,-4.84
2017-01-28T00:34:05.004Z,-4.78
2017-01-28T00:35:05.988Z,-4.75
2017-01-28T00:36:05.415Z,-4.81
2017-01-28T00:37:05.984Z,-4.88
2017-01-28T00:38:06.664Z,-4.71
2017-01-28T00:39:06.457Z,-4.59
2017-01-28T00:40:05.909Z,-4.48
2017-01-28T00:41:05.181Z,-4.55
2017-01-28T00:42:06.362Z,-4.46
2017-01-28T00:43:05.790Z,-4.41
2017-01-28T00:44:07.256Z,-4.42
2017-01-28T00:45:05.154Z,-4.35
2017-01-28T00:46:06.305Z,-4.21
2017-01-28T00:47:05.128Z,-4.27
2017-01-28T00:48:07.154Z,-4.3
2017-01-28T00:49:05.316Z,-4.31
2017-01-28T00:50:05.253Z,-4.32
2017-01-28T00:51:05.835Z,-4.35
2017-01-28T00:52:06.068Z,-4.45
2017-01-28T00:53:06.198Z,-4.52
2017-01-28T00:54:06.039Z,-4.55
2017-01-28T00:55:05.879Z,-4.52
2017-01-28T00:56:06.241Z,-4.61
2017-01-28T00:57:04.744Z,-4.63
2017-01-28T00:58:05.527Z,-4.71
2017-01-28T00:59:06.757Z,-4.69
2017-01-28T01:00:06.397Z,-4.77
2017-01-28T01:01:05.357Z,-4.73
2017-01-28T01:02:05.721Z,-4.85
2017-01-28T01:03:06.688Z,-4.81
2017-01-28T01:04:06.257Z,-4.88
2017-01-28T01:05:05.968Z,-4.95
2017-01-28T01:06:06.914Z,-4.98
2017-01-28T01:07:06.441Z,-5.17
2017-01-28T01:08:06.950Z,-5.05
2017-01-28T01:09:05.350Z,-5.24
2017-01-28T01:10:05.559Z,-5.27
2017-01-28T01:11:05.794Z,-5.49
2017-01-28T01:12:07.065Z,-5.42
2017-01-28T01:13:05.447Z,-5.31
2017-01-28T01:14:06.595Z,-5.28
2017-01-28T01:15:05.980Z,-5.14
2017-01-28T01:16:06.937Z,-5.28
2017-01-28T01:17:05.955Z,-5.19
2017-01-28T01:18:06.621Z,-5.05
2017-01-28T01:19:06.528Z,-5.05
2017-01-28T01:20:06.315Z,-5.13
2017-01-28T01:21:06.533Z,-5.13
2017-01-28T01:22:05.253Z,-5.24
2017-01-28T01:23:06.258Z,-5.25
2017-01-28T01:24:06.705Z,-5.21
2017-01-28T01:25:05.881Z,-5.29
2017-01-28T01:26:07.016Z,-5.35
2017-01-28T01:27:06.733Z,-5.47
2017-01-28T01:28:07.511Z,-5.54
2017-01-28T01:29:06.054Z,-5.38
2017-01-28T01:30:07.082Z,-5.58
2017-01-28T01:31:06.878Z,-5.61
2017-01-28T01:32:06.146Z,-5.76
2017-01-28T01:33:08.101Z,-5.79
2017-01-28T01:34:06.449Z,-5.86
2017-01-28T01:35:06.408Z,-5.78
2017-01-28T01:36:06.920Z,-5.66
2017-01-28T01:37:05.891Z,-5.53
2017-01-28T01:38:06.309Z,-5.61
2017-01-28T01:39:07.121Z,-5.43
2017-01-28T01:40:06.725Z,-5.46
2017-01-28T01:41:06.857Z,-5.36
2017-01-28T01:42:06.354Z,-5.28
2017-01-28T01:43:06.838Z,-5.35
2017-01-28T01:44:06.921Z,-5.36
2017-01-28T01:45:07.267Z,-5.33
2017-01-28T01:46:05.968Z,-5.47
2017-01-28T01:47:05.963Z,-5.57
2017-01-28T01:48:05.410Z,-5.68
2017-01-28T01:49:06.273Z,-5.76
2017-01-28T01:50:05.925Z,-5.82
2017-01-28T01:51:05.774Z,-5.93
2017-01-28T01:52:06.198Z,-5.89
2017-01-28T01:53:06.571Z,-6
2017-01-28T01:54:06.387Z,-6.03
2017-01-28T01:55:05.856Z,-6.15
2017-01-28T01:56:07.462Z,-5.97
2017-01-28T01:57:06.808Z,-5.81
2017-01-28T01:58:07.395Z,-5.92
2017-01-28T01:59:06.394Z,-5.81
2017-01-28T02:00:07.310Z,-5.82
2017-01-28T02:01:06.889Z,-5.76
2017-01-28T02:02:06.565Z,-5.92
2017-01-28T02:03:07.493Z,-5.97
2017-01-28T02:04:06.079Z,-6.05
2017-01-28T02:05:06.759Z,-6.14
2017-01-28T02:06:06.639Z,-6.11
2017-01-28T02:07:06.980Z,-6.14
2017-01-28T02:08:06.076Z,-6.17
2017-01-28T02:09:06.808Z,-6.23
2017-01-28T02:10:05.845Z,-6.29
2017-01-28T02:11:06.755Z,-6.2
2017-01-28T02:12:08.545Z,-6.32
2017-01-28T02:13:07.087Z,-6.38
2017-01-28T02:14:06.601Z,-6.23
2017-01-28T02:15:06.313Z,-6.31
2017-01-28T02:16:06.985Z,-6.28
2017-01-28T02:17:06.501Z,-6.1
2017-01-28T02:18:06.752Z,-6.17
2017-01-28T02:19:06.551Z,-6.15
2017-01-28T02:20:06.868Z,-6.17
2017-01-28T02:21:06.745Z,-6.07
2017-01-28T02:22:07.130Z,-6.1
2017-01-28T02:23:07.329Z,-6.13
2017-01-28T02:24:07.183Z,-6.11
2017-01-28T02:25:07.027Z,-6.1
2017-01-28T02:26:07.310Z,-5.95
2017-01-28T02:27:06.837Z,-6
2017-01-28T02:28:05.946Z,-5.99
2017-01-28T02:29:07.458Z,-5.96
2017-01-28T02:30:07.176Z,-6
2017-01-28T02:31:06.798Z,-6.08
2017-01-28T02:32:07.456Z,-5.99
2017-01-28T02:33:07.047Z,-6.2
2017-01-28T02:34:07.299Z,-6.14
2017-01-28T02:35:06.539Z,-6.29
2017-01-28T02:36:06.872Z,-6.23
2017-01-28T02:37:06.892Z,-6.26
2017-01-28T02:38:07.466Z,-6.42
2017-01-28T02:39:06.551Z,-6.36
2017-01-28T02:40:07.762Z,-6.39
2017-01-28T02:41:07.126Z,-6.42
2017-01-28T02:42:07.685Z,-6.42
2017-01-28T02:43:08.019Z,-6.47
2017-01-28T02:44:06.942Z,-6.5
2017-01-28T02:45:06.940Z,-6.49
2017-01-28T02:46:06.781Z,-6.54
2017-01-28T02:47:07.945Z,-6.66
2017-01-28T02:48:06.295Z,-6.65
2017-01-28T02:49:07.855Z,-6.58
2017-01-28T02:50:07.668Z,-6.66
2017-01-28T02:51:07.958Z,-6.65
2017-01-28T02:52:07.695Z,-6.68
2017-01-28T02:53:07.263Z,-6.65
2017-01-28T02:54:06.931Z,-6.74
2017-01-28T02:55:07.804Z,-6.72
2017-01-28T02:56:06.791Z,-6.76
2017-01-28T02:57:07.730Z,-6.71
2017-01-28T02:58:06.800Z,-6.81
2017-01-28T02:59:07.550Z,-6.74
2017-01-28T03:00:08.743Z,-6.69
2017-01-28T03:01:06.927Z,-6.66
2017-01-28T03:02:07.534Z,-6.58
2017-01-28T03:03:05.963Z,-6.71
2017-01-28T03:04:06.983Z,-6.6
2017-01-28T03:05:07.350Z,-6.66
2017-01-28T03:06:08.622Z,-6.6
2017-01-28T03:07:07.789Z,-6.58
2017-01-28T03:08:06.888Z,-6.47
2017-01-28T03:09:06.686Z,-6.47
2017-01-28T03:10:07.696Z,-6.47
2017-01-28T03:11:06.562Z,-6.39
2017-01-28T03:12:07.729Z,-6.38
2017-01-28T03:13:06.955Z,-6.28
2017-01-28T03:14:07.540Z,-6.13
2017-01-28T03:15:07.289Z,-6.18
2017-01-28T03:16:07.673Z,-6.14
2017-01-28T03:17:06.585Z,-6.1
2017-01-28T03:18:08.174Z,-6.23
2017-01-28T03:19:07.250Z,-6.21
2017-01-28T03:20:07.162Z,-6.28
2017-01-28T03:21:07.031Z,-6.35
2017-01-28T03:22:08.010Z,-6.35
2017-01-28T03:23:07.389Z,-6.32
2017-01-28T03:24:07.710Z,-6.39
2017-01-28T03:25:07.662Z,-6.38
2017-01-28T03:26:07.039Z,-6.41
2017-01-28T03:27:07.612Z,-6.32
2017-01-28T03:28:07.030Z,-6.29
2017-01-28T03:29:07.055Z,-6.34
2017-01-28T03:30:07.680Z,-6.36
2017-01-28T03:31:07.559Z,-6.44
2017-01-28T03:32:07.741Z,-6.47
2017-01-28T03:33:07.674Z,-6.49
2017-01-28T03:34:06.334Z,-6.58
2017-01-28T03:35:07.822Z,-6.56
2017-01-28T03:36:07.293Z,-6.52
2017-01-28T03:37:07.840Z,-6.54
2017-01-28T03:38:06.771Z,-6.63
2017-01-28T03:39:07.885Z,-6.46
2017-01-28T03:40:07.528Z,-6.5
2017-01-28T03:41:07.362Z,-6.53
2017-01-28T03:42:06.896Z,-6.5
2017-01-28T03:43:08.027Z,-6.63
2017-01-28T03:44:07.166Z,-6.72
2017-01-28T03:45:08.944Z,-6.78
2017-01-28T03:46:06.925Z,-6.81
2017-01-28T03:47:07.814Z,-6.69
2017-01-28T03:48:07.773Z,-6.68
2017-01-28T03:49:07.494Z,-6.61
2017-01-28T03:50:07.042Z,-6.58
2017-01-28T03:51:07.260Z,-6.56
2017-01-28T03:52:07.560Z,-6.46
2017-01-28T03:53:07.554Z,-6.42
2017-01-28T03:54:08.131Z,-6.41
2017-01-28T03:55:07.449Z,-6.5
2017-01-28T03:56:07.683Z,-6.32
2017-01-28T03:57:08.460Z,-6.49
2017-01-28T03:58:07.175Z,-6.46
2017-01-28T03:59:08.126Z,-6.32
2017-01-28T04:00:06.220Z,-6.42
2017-01-28T04:01:07.389Z,-6.54
2017-01-28T04:02:07.242Z,-6.6
2017-01-28T04:03:07.327Z,-6.65
2017-01-28T04:04:08.223Z,-6.61
2017-01-28T04:05:08.811Z,-6.81
2017-01-28T04:06:09.218Z,-6.79
2017-01-28T04:07:07.609Z,-6.9
2017-01-28T04:08:08.065Z,-6.83
2017-01-28T04:09:08.974Z,-6.93
2017-01-28T04:10:07.520Z,-7.03
2017-01-28T04:11:08.122Z,-6.96
2017-01-28T04:12:08.365Z,-7.05
2017-01-28T04:13:08.641Z,-7
2017-01-28T04:14:08.704Z,-6.93
2017-01-28T04:15:07.656Z,-6.96
2017-01-28T04:16:08.089Z,-6.96
2017-01-28T04:17:08.821Z,-7.04
2017-01-28T04:18:08.085Z,-6.99
2017-01-28T04:19:08.450Z,-6.87
2017-01-28T04:20:08.235Z,-6.9
2017-01-28T04:21:09.058Z,-6.89
2017-01-28T04:22:07.922Z,-6.83
2017-01-28T04:23:09.062Z,-6.81
2017-01-28T04:24:08.685Z,-6.81
2017-01-28T04:25:07.966Z,-6.87
2017-01-28T04:26:07.720Z,-6.9
2017-01-28T04:27:09.276Z,-6.83
2017-01-28T04:28:08.517Z,-6.71
2017-01-28T04:29:08.478Z,-6.72
2017-01-28T04:30:08.739Z,-6.5
2017-01-28T04:31:07.805Z,-6.41
2017-01-28T04:32:08.510Z,-6.46
2017-01-28T04:33:07.660Z,-6.24
2017-01-28T04:34:07.740Z,-6.31
2017-01-28T04:35:08.639Z,-6.21
2017-01-28T04:36:07.709Z,-6.05
2017-01-28T04:37:08.051Z,-6.14
2017-01-28T04:38:07.780Z,-6.17
2017-01-28T04:39:08.539Z,-6.14
2017-01-28T04:40:08.129Z,-6.02
2017-01-28T04:41:08.584Z,-6.1
2017-01-28T04:42:09.719Z,-6.13
2017-01-28T04:43:08.258Z,-6.07
2017-01-28T04:44:08.943Z,-6.14
2017-01-28T04:45:07.780Z,-6.18
2017-01-28T04:46:08.030Z,-6.07
2017-01-28T04:47:08.925Z,-5.97
2017-01-28T04:48:09.077Z,-6.14
2017-01-28T04:49:07.483Z,-6.18
2017-01-28T04:50:08.135Z,-6.11
2017-01-28T04:51:09.164Z,-6.13
2017-01-28T04:52:08.089Z,-6.24
2017-01-28T04:53:09.076Z,-6.21
2017-01-28T04:54:08.122Z,-6.23
2017-01-28T04:55:08.013Z,-6.21
2017-01-28T04:56:08.260Z,-6.23
2017-01-28T04:57:07.394Z,-6.24
2017-01-28T04:58:09.609Z,-6.32
2017-01-28T04:59:07.903Z,-6.28
2017-01-28T05:00:08.304Z,-6.29
2017-01-28T05:01:07.759Z,-6.21
2017-01-28T05:02:09.536Z,-6.2
2017-01-28T05:03:07.544Z,-6.18
2017-01-28T05:04:07.334Z,-6.17
2017-01-28T05:05:07.697Z,-6.08
2017-01-28T05:06:08.679Z,-6.05
2017-01-28T05:07:08.813Z,-6.11
2017-01-28T05:08:08.675Z,-5.97
2017-01-28T05:09:09.549Z,-6.07
2017-01-28T05:10:08.690Z,-6.1
2017-01-28T05:11:08.488Z,-6
2017-01-28T05:12:08.766Z,-6
2017-01-28T05:13:09.425Z,-5.93
2017-01-28T05:14:10.004Z,-5.9
2017-01-28T05:15:08.333Z,-5.95
2017-01-28T05:16:08.184Z,-5.99
2017-01-28T05:17:09.747Z,-6.05
2017-01-28T05:18:08.033Z,-6.1
2017-01-28T05:19:07.983Z,-6.05
2017-01-28T05:20:08.898Z,-6.02
2017-01-28T05:21:08.591Z,-5.99
2017-01-28T05:22:09.811Z,-6
2017-01-28T05:23:08.601Z,-6.05
2017-01-28T05:24:08.565Z,-6.05
2017-01-28T05:25:08.757Z,-6.14
2017-01-28T05:26:10.926Z,-6.2
2017-01-28T05:27:08.136Z,-6.17
2017-01-28T05:28:09.151Z,-6.31
2017-01-28T05:29:08.703Z,-6.29
2017-01-28T05:30:08.810Z,-6.28
2017-01-28T05:31:08.251Z,-6.42
2017-01-28T05:32:09.300Z,-6.38
2017-01-28T05:33:08.778Z,-6.53
2017-01-28T05:34:09.195Z,-6.46
2017-01-28T05:35:09.781Z,-6.65
2017-01-28T05:36:09.002Z,-6.63
2017-01-28T05:37:09.172Z,-6.65
2017-01-28T05:38:09.361Z,-6.68
2017-01-28T05:39:09.103Z,-6.72
2017-01-28T05:40:09.157Z,-6.66
2017-01-28T05:41:09.777Z,-6.84
2017-01-28T05:42:09.157Z,-6.65
2017-01-28T05:43:08.904Z,-6.66
2017-01-28T05:44:08.679Z,-6.63
2017-01-28T05:45:09.696Z,-6.56
2017-01-28T05:46:08.586Z,-6.47
2017-01-28T05:47:09.127Z,-6.44
2017-01-28T05:48:09.110Z,-6.38
2017-01-28T05:49:09.289Z,-6.42
2017-01-28T05:50:09.290Z,-6.36
2017-01-28T05:51:08.878Z,-6.39
2017-01-28T05:52:08.754Z,-6.39
2017-01-28T05:53:09.194Z,-6.44
2017-01-28T05:54:08.804Z,-6.36
2017-01-28T05:55:09.433Z,-6.32
2017-01-28T05:56:09.801Z,-6.26
2017-01-28T05:57:09.529Z,-6.18
2017-01-28T05:58:08.609Z,-6.02
2017-01-28T05:59:08.979Z,-6.11
2017-01-28T06:00:10.949Z,-6
2017-01-28T06:01:08.880Z,-5.93
2017-01-28T06:02:09.386Z,-5.74
2017-01-28T06:03:09.672Z,-5.78
2017-01-28T06:04:09.850Z,-5.82
2017-01-28T06:05:09.088Z,-5.78
2017-01-28T06:06:09.211Z,-5.89
2017-01-28T06:07:09.205Z,-5.84
2017-01-28T06:08:10.735Z,-5.78
2017-01-28T06:09:10.022Z,-5.76
2017-01-28T06:10:09.099Z,-5.78
2017-01-28T06:11:09.697Z,-5.81
2017-01-28T06:12:08.862Z,-5.76
2017-01-28T06:13:09.437Z,-5.81
2017-01-28T06:14:08.996Z,-5.85
2017-01-28T06:15:08.206Z,-5.85
2017-01-28T06:16:08.832Z,-5.86
2017-01-28T06:17:09.317Z,-5.89
2017-01-28T06:18:08.715Z,-5.78
2017-01-28T06:19:08.272Z,-5.85
2017-01-28T06:20:08.191Z,-5.75
2017-01-28T06:21:09.186Z,-5.9
2017-01-28T06:22:10.435Z,-5.92
2017-01-28T06:23:08.923Z,-5.82
2017-01-28T06:24:08.858Z,-5.78
2017-01-28T06:25:09.308Z,-5.84
2017-01-28T06:26:09.070Z,-5.78
2017-01-28T06:27:08.917Z,-5.85
2017-01-28T06:28:09.014Z,-5.84
2017-01-28T06:29:08.671Z,-5.86
2017-01-28T06:30:09.164Z,-5.86
2017-01-28T06:31:09.971Z,-5.86
2017-01-28T06:32:09.436Z,-5.79
2017-01-28T06:33:10.010Z,-5.85
2017-01-28T06:34:08.826Z,-5.86
2017-01-28T06:35:08.206Z,-5.95
2017-01-28T06:36:09.491Z,-5.9
2017-01-28T06:37:09.059Z,-5.9
2017-01-28T06:38:08.527Z,-5.96
2017-01-28T06:39:10.497Z,-5.92
2017-01-28T06:40:10.286Z,-5.92
2017-01-28T06:41:10.655Z,-5.93
2017-01-28T06:42:09.758Z,-5.93
2017-01-28T06:43:10.693Z,-5.95
2017-01-28T06:44:09.631Z,-5.97
2017-01-28T06:45:09.224Z,-5.92
2017-01-28T06:46:08.610Z,-5.93
2017-01-28T06:47:09.210Z,-5.99
2017-01-28T06:48:09.350Z,-5.96
2017-01-28T06:49:10.025Z,-6.05
2017-01-28T06:50:08.354Z,-5.99
2017-01-28T06:51:09.934Z,-6.07
2017-01-28T06:52:09.028Z,-5.99
2017-01-28T06:53:08.527Z,-5.96
2017-01-28T06:54:10.233Z,-6.11
2017-01-28T06:55:09.065Z,-6.14
2017-01-28T06:56:09.970Z,-6.1
2017-01-28T06:57:10.534Z,-6.11
2017-01-28T06:58:10.242Z,-6.07
2017-01-28T06:59:09.382Z,-6.05
2017-01-28T07:00:09.470Z,-6.18
2017-01-28T07:01:10.317Z,-6.11
2017-01-28T07:02:09.301Z,-6.1
2017-01-28T07:03:09.881Z,-6.08
2017-01-28T07:04:09.208Z,-6.02
2017-01-28T07:05:09.630Z,-6.07
2017-01-28T07:06:10.186Z,-6
2017-01-28T07:07:10.134Z,-6.05
2017-01-28T07:08:09.523Z,-5.97
2017-01-28T07:09:10.651Z,-6
2017-01-28T07:10:10.060Z,-6.02
2017-01-28T07:11:09.246Z,-5.93
2017-01-28T07:12:09.361Z,-5.96
2017-01-28T07:13:10.206Z,-6.08
2017-01-28T07:14:09.092Z,-6.07
2017-01-28T07:15:09.997Z,-6.05
2017-01-28T07:16:09.289Z,-6.02
2017-01-28T07:17:10.238Z,-6.11
2017-01-28T07:18:09.415Z,-6.17
2017-01-28T07:19:09.361Z,-6.24
2017-01-28T07:20:10.394Z,-6.2
2017-01-28T07:21:10.025Z,-6.29
2017-01-28T07:22:09.141Z,-6.26
2017-01-28T07:23:09.918Z,-6.21
2017-01-28T07:24:09.626Z,-6.2
2017-01-28T07:25:10.287Z,-6.24
2017-01-28T07:26:09.196Z,-6.21
2017-01-28T07:27:09.674Z,-6.18
2017-01-28T07:28:09.244Z,-6.24
2017-01-28T07:29:09.398Z,-6.15
2017-01-28T07:30:09.282Z,-6.15
2017-01-28T07:31:10.365Z,-6.1
2017-01-28T07:32:09.583Z,-6.08
2017-01-28T07:33:10.186Z,-6.07
2017-01-28T07:34:09.739Z,-5.99
2017-01-28T07:35:09.174Z,-5.92
2017-01-28T07:36:09.269Z,-5.92
2017-01-28T07:37:09.212Z,-5.9
2017-01-28T07:38:10.395Z,-5.89
2017-01-28T07:39:10.226Z,-5.84
2017-01-28T07:40:09.521Z,-5.79
2017-01-28T07:41:09.824Z,-5.82
2017-01-28T07:42:09.487Z,-5.81
2017-01-28T07:43:09.500Z,-5.86
2017-01-28T07:44:10.118Z,-5.79
2017-01-28T07:45:09.783Z,-5.72
2017-01-28T07:46:08.798Z,-5.74
2017-01-28T07:47:09.569Z,-5.54
2017-01-28T07:48:10.021Z,-5.51
2017-01-28T07:49:09.773Z,-5.46
2017-01-28T07:50:09.785Z,-5.36
2017-01-28T07:51:10.129Z,-5.25
2017-01-28T07:52:11.395Z,-5.24
2017-01-28T07:53:10.856Z,-5.22
2017-01-28T07:54:09.986Z,-5.22
2017-01-28T07:55:09.693Z,-5.14
2017-01-28T07:56:09.587Z,-4.98
2017-01-28T07:57:10.101Z,-5.14
2017-01-28T07:58:10.317Z,-4.99
2017-01-28T07:59:09.702Z,-4.92
2017-01-28T08:00:09.654Z,-4.95
2017-01-28T08:01:09.644Z,-4.79
2017-01-28T08:02:08.882Z,-4.71
2017-01-28T08:03:09.658Z,-4.66
2017-01-28T08:04:10.888Z,-4.63
2017-01-28T08:05:10.468Z,-4.52
2017-01-28T08:06:10.081Z,-4.49
2017-01-28T08:07:11.547Z,-4.38
2017-01-28T08:08:09.967Z,-4.39
2017-01-28T08:09:11.207Z,-4.27
2017-01-28T08:10:09.944Z,-4.14
2017-01-28T08:11:08.670Z,-4.25
2017-01-28T08:12:08.785Z,-4.27
2017-01-28T08:13:09.464Z,-4.07
2017-01-28T08:14:09.356Z,-4.09
2017-01-28T08:15:09.237Z,-4.03
2017-01-28T08:16:10.927Z,-3.99
2017-01-28T08:17:10.681Z,-4.02
2017-01-28T08:18:11.905Z,-3.96
2017-01-28T08:19:11.055Z,-3.92
2017-01-28T08:20:10.403Z,-3.98
2017-01-28T08:21:10.652Z,-4.03
2017-01-28T08:22:10.347Z,-3.96
2017-01-28T08:23:10.939Z,-4.02
2017-01-28T08:24:11.713Z,-3.99
2017-01-28T08:25:10.379Z,-3.99
2017-01-28T08:26:10.410Z,-4.02
2017-01-28T08:27:11.202Z,-4.03
2017-01-28T08:28:12.220Z,-3.99
2017-01-28T08:29:09.197Z,-3.91
2017-01-28T08:30:10.376Z,-3.8
2017-01-28T08:31:10.657Z,-3.8
2017-01-28T08:32:09.283Z,-3.66
2017-01-28T08:33:09.643Z,-3.61
2017-01-28T08:34:10.357Z,-3.54
2017-01-28T08:35:10.311Z,-3.64
2017-01-28T08:36:11.212Z,-3.63
2017-01-28T08:37:09.846Z,-3.48
2017-01-28T08:38:10.259Z,-3.56
2017-01-28T08:39:10.650Z,-3.38
2017-01-28T08:40:11.206Z,-3.4
2017-01-28T08:41:10.276Z,-3.31
2017-01-28T08:42:10.629Z,-3.23
2017-01-28T08:43:10.535Z,-3.33
2017-01-28T08:44:09.630Z,-3.31
2017-01-28T08:45:10.100Z,-3.04
2017-01-28T08:46:10.528Z,-2.97
2017-01-28T08:47:10.917Z,-2.88
2017-01-28T08:48:09.259Z,-2.83
2017-01-28T08:49:10.514Z,-2.71
2017-01-28T08:50:10.133Z,-2.86
2017-01-28T08:51:10.509Z,-2.84
2017-01-28T08:52:10.432Z,-2.81
2017-01-28T08:53:10.220Z,-2.8
2017-01-28T08:54:10.491Z,-2.86
2017-01-28T08:55:10.450Z,-2.66
2017-01-28T08:56:10.099Z,-2.55
2017-01-28T08:57:11.109Z,-2.45
2017-01-28T08:58:11.299Z,-2.47
2017-01-28T08:59:10.908Z,-2.22
2017-01-28T09:00:10.350Z,-2.22
2017-01-28T09:01:10.639Z,-2.13
2017-01-28T09:02:10.787Z,-2
2017-01-28T09:03:10.046Z,-2.01
2017-01-28T09:04:09.693Z,-2
2017-01-28T09:05:09.396Z,-1.94
2017-01-28T09:06:11.436Z,-1.84
2017-01-28T09:07:10.696Z,-1.83
2017-01-28T09:08:10.262Z,-1.69
2017-01-28T09:09:10.256Z,-1.54
2017-01-28T09:10:10.646Z,-1.35
2017-01-28T09:11:10.003Z,-1.48
2017-01-28T09:12:11.677Z,-1.59
2017-01-28T09:13:10.537Z,-1.35
2017-01-28T09:14:10.000Z,-1.43
2017-01-28T09:15:10.625Z,-1.27
2017-01-28T09:16:11.681Z,-1.35
2017-01-28T09:17:11.474Z,-1.74
2017-01-28T09:18:10.914Z,-1.76
2017-01-28T09:19:10.533Z,-1.74
2017-01-28T09:20:11.012Z,-1.71
2017-01-28T09:21:10.587Z,-1.58
2017-01-28T09:22:11.849Z,-1.37
2017-01-28T09:23:11.407Z,-1.02
2017-01-28T09:24:10.406Z,-0.8
2017-01-28T09:25:10.675Z,-0.72
2017-01-28T09:26:10.240Z,-0.75
2017-01-28T09:27:11.568Z,-0.77
2017-01-28T09:28:11.367Z,-0.77
2017-01-28T09:29:10.731Z,-0.52
2017-01-28T09:30:10.250Z,-0.9
2017-01-28T09:31:11.127Z,-0.99
2017-01-28T09:32:11.039Z,-0.96
2017-01-28T09:33:11.045Z,-0.97
2017-01-28T09:34:12.090Z,-1.26
2017-01-28T09:35:11.172Z,-1.3
2017-01-28T09:36:11.496Z,-1.02
2017-01-28T09:37:11.267Z,-1.01
2017-01-28T09:38:11.748Z,-0.96
2017-01-28T09:39:11.121Z,-0.77
2017-01-28T09:40:10.455Z,-0.7
2017-01-28T09:41:10.331Z,-0.62
2017-01-28T09:42:11.353Z,-0.74
2017-01-28T09:43:12.210Z,-0.53
2017-01-28T09:44:11.071Z,-0.61
2017-01-28T09:45:11.118Z,-0.41
2017-01-28T09:46:10.579Z,-0.56
2017-01-28T09:47:10.830Z,-0.41
2017-01-28T09:48:10.532Z,-0.47
2017-01-28T09:49:10.635Z,-0.62
2017-01-28T09:50:11.733Z,-0.61
2017-01-28T09:51:10.754Z,-0.59
2017-01-28T09:52:12.117Z,-0.31
2017-01-28T09:53:11.658Z,-0.18
2017-01-28T09:54:10.408Z,-0.23
2017-01-28T09:55:11.047Z,-0.31
2017-01-28T09:56:11.370Z,-0.18
2017-01-28T09:57:10.861Z,-0.61
2017-01-28T09:58:11.728Z,-0.59
2017-01-28T09:59:11.422Z,-0.67
2017-01-28T10:00:11.302Z,-0.57
2017-01-28T10:01:12.009Z,-0.61
2017-01-28T10:02:11.082Z,-0.67
2017-01-28T10:03:12.548Z,-0.35
2017-01-28T10:04:12.039Z,-0.38
2017-01-28T10:05:11.483Z,-0.36
2017-01-28T10:06:12.220Z,-0.32
2017-01-28T10:07:11.542Z,-0.35
2017-01-28T10:08:11.295Z,-0.35
2017-01-28T10:09:12.238Z,-0.43
2017-01-28T10:10:11.094Z,-0.43
2017-01-28T10:11:12.485Z,-0.39
2017-01-28T10:12:11.338Z,-0.08
2017-01-28T10:13:11.032Z,-0.17
2017-01-28T10:14:10.447Z,-0.21
2017-01-28T10:15:10.438Z,-0.08
2017-01-28T10:16:11.762Z,-0.21
2017-01-28T10:17:11.710Z,-0.17
2017-01-28T10:18:11.960Z,-0.31
2017-01-28T10:19:12.375Z,-0.18
2017-01-28T10:20:10.774Z,-0.17
2017-01-28T10:21:11.043Z,0.03
2017-01-28T10:22:12.244Z,-0.21
2017-01-28T10:23:11.097Z,-0.07
2017-01-28T10:24:12.156Z,0.22
2017-01-28T10:25:12.297Z,0.07
2017-01-28T10:26:11.351Z,0.23
2017-01-28T10:27:12.469Z,0.07
2017-01-28T10:28:11.509Z,0.15
2017-01-28T10:29:11.002Z,0.12
2017-01-28T10:30:12.466Z,0.18
2017-01-28T10:31:11.418Z,0.32
2017-01-28T10:32:11.123Z,0.47
2017-01-28T10:33:11.228Z,0.47
2017-01-28T10:34:11.224Z,0.46
2017-01-28T10:35:11.453Z,0.52
2017-01-28T10:36:12.252Z,0.39
2017-01-28T10:37:11.436Z,0.39
2017-01-28T10:38:12.156Z,0.49
2017-01-28T10:39:12.575Z,0.55
2017-01-28T10:40:12.155Z,0.86
2017-01-28T10:41:11.581Z,0.92
2017-01-28T10:42:12.405Z,1.08
2017-01-28T10:43:11.567Z,1.02
2017-01-28T10:44:12.667Z,0.77
2017-01-28T10:45:11.840Z,0.69
2017-01-28T10:46:11.647Z,0.77
2017-01-28T10:47:11.860Z,0.68
2017-01-28T10:48:11.625Z,0.73
2017-01-28T10:49:12.965Z,0.84
2017-01-28T10:50:12.245Z,0.78
2017-01-28T10:51:12.638Z,0.94
2017-01-28T10:52:11.945Z,0.74
2017-01-28T10:53:11.958Z,0.94
2017-01-28T10:54:12.943Z,0.98
2017-01-28T10:55:11.845Z,0.92
2017-01-28T10:56:12.302Z,0.83
2017-01-28T10:57:12.563Z,1.04
2017-01-28T10:58:11.161Z,1.3
2017-01-28T10:59:12.983Z,1.31
2017-01-28T11:00:13.254Z,1.06
2017-01-28T11:01:11.969Z,1.01
2017-01-28T11:02:11.863Z,1.19
2017-01-28T11:03:12.712Z,1.13
2017-01-28T11:04:12.223Z,1.13
2017-01-28T11:05:12.009Z,1.05
2017-01-28T11:06:12.666Z,1.17
2017-01-28T11:07:12.267Z,1.19
2017-01-28T11:08:12.172Z,1.32
2017-01-28T11:09:12.492Z,1.22
2017-01-28T11:10:11.791Z,1.28
2017-01-28T11:11:12.907Z,1.44
2017-01-28T11:12:13.802Z,1.34
2017-01-28T11:13:12.717Z,1.38
2017-01-28T11:14:12.211Z,1.66
2017-01-28T11:15:12.600Z,1.63
2017-01-28T11:16:12.224Z,1.5
2017-01-28T11:17:11.558Z,1.38
2017-01-28T11:18:11.753Z,1.45
2017-01-28T11:19:12.249Z,1.23
2017-01-28T11:20:12.279Z,1.22
2017-01-28T11:21:12.251Z,1.24
2017-01-28T11:22:12.317Z,1.42
2017-01-28T11:23:13.189Z,1.32
2017-01-28T11:24:12.576Z,1.44
2017-01-28T11:25:12.669Z,1.45
2017-01-28T11:26:12.675Z,1.6
2017-01-28T11:27:13.072Z,1.62
2017-01-28T11:28:12.425Z,1.66
2017-01-28T11:29:12.604Z,1.53
2017-01-28T11:30:12.935Z,1.7
2017-01-28T11:31:11.945Z,1.58
2017-01-28T11:32:12.197Z,1.77
2017-01-28T11:33:12.774Z,1.81
2017-01-28T11:34:12.992Z,1.89
2017-01-28T11:35:14.152Z,1.92
2017-01-28T11:36:13.846Z,2.04
2017-01-28T11:37:13.291Z,2.24
2017-01-28T11:38:12.300Z,2.39
2017-01-28T11:39:13.781Z,2.32
2017-01-28T11:40:13.071Z,2.35
2017-01-28T11:41:12.750Z,2.25
2017-01-28T11:42:13.617Z,2.18
2017-01-28T11:43:12.020Z,2.24
2017-01-28T11:44:12.009Z,2.32
2017-01-28T11:45:12.739Z,2.56
2017-01-28T11:46:12.860Z,2.54
2017-01-28T11:47:13.024Z,2.71
2017-01-28T11:48:12.444Z,2.62
2017-01-28T11:49:12.219Z,2.72
2017-01-28T11:50:13.700Z,2.97
2017-01-28T11:51:13.266Z,2.92
2017-01-28T11:52:12.922Z,3.13
2017-01-28T11:53:12.984Z,3.01
2017-01-28T11:54:12.629Z,2.8
2017-01-28T11:55:12.545Z,2.67
2017-01-28T11:56:13.125Z,2.61
2017-01-28T11:57:12.963Z,2.75
2017-01-28T11:58:14.515Z,2.47
2017-01-28T11:59:12.591Z,2.57
2017-01-28T12:00:12.434Z,2.57
2017-01-28T12:01:12.336Z,3
2017-01-28T12:02:12.727Z,2.98
2017-01-28T12:03:12.245Z,2.97
2017-01-28T12:04:12.999Z,2.83
2017-01-28T12:05:12.689Z,2.8
2017-01-28T12:06:13.216Z,2.79
2017-01-28T12:07:12.564Z,3.05
2017-01-28T12:08:12.619Z,3.01
2017-01-28T12:09:12.859Z,2.85
2017-01-28T12:10:13.157Z,3.11
2017-01-28T12:11:14.183Z,3.08
2017-01-28T12:12:12.834Z,3.19
2017-01-28T12:13:12.583Z,3.34
2017-01-28T12:14:12.937Z,3.88
2017-01-28T12:15:12.923Z,3.99
2017-01-28T12:16:12.922Z,4.13
2017-01-28T12:17:14.742Z,4.42
2017-01-28T12:18:12.651Z,4.34
2017-01-28T12:19:12.921Z,4.13
2017-01-28T12:20:13.991Z,4.63
2017-01-28T12:21:14.115Z,4.02
2017-01-28T12:22:13.020Z,4.22
2017-01-28T12:23:12.349Z,4.48
2017-01-28T12:24:13.769Z,4.32
2017-01-28T12:25:13.341Z,4.6
2017-01-28T12:26:13.868Z,4.59
2017-01-28T12:27:12.950Z,5.1
2017-01-28T12:28:14.204Z,4.97
2017-01-28T12:29:13.251Z,4.84
2017-01-28T12:30:13.387Z,4.62
2017-01-28T12:31:14.534Z,4.37
2017-01-28T12:32:12.592Z,4.49
2017-01-28T12:33:13.941Z,4.77
2017-01-28T12:34:12.872Z,4.63
2017-01-28T12:35:12.894Z,4.7
2017-01-28T12:36:13.977Z,4.58
2017-01-28T12:37:14.462Z,4.56
2017-01-28T12:38:12.652Z,4.19
2017-01-28T12:39:14.253Z,4.04
2017-01-28T12:40:13.332Z,3.74
2017-01-28T12:41:14.083Z,3.73
2017-01-28T12:42:14.069Z,3.69
2017-01-28T12:43:13.850Z,3.74
2017-01-28T12:44:14.526Z,3.88
2017-01-28T12:45:14.781Z,3.73
2017-01-28T12:46:13.871Z,3.98
2017-01-28T12:47:13.673Z,3.87
2017-01-28T12:48:13.243Z,3.87
2017-01-28T12:49:14.619Z,3.98
2017-01-28T12:50:13.339Z,4.04
2017-01-28T12:51:13.165Z,3.96
2017-01-28T12:52:13.720Z,4.13
2017-01-28T12:53:14.080Z,4.08
2017-01-28T12:54:13.307Z,4.26
2017-01-28T12:55:14.316Z,4.14
2017-01-28T12:56:13.920Z,4.37
2017-01-28T12:57:13.633Z,4.42
2017-01-28T12:58:14.039Z,4.22
2017-01-28T12:59:14.516Z,4.14
2017-01-28T13:00:14.298Z,4.32